sensor_id;sensor_type;location;lat;lon;timestamp;pressure;altitude;pressure_sealevel;temperature;humidity
13593;BME280;6867;50.998;4.250;2023-02-10T00:01:25;103315.94;;;2.86;73.45
13593;BME280;6867;50.998;4.250;2023-02-10T00:03:52;103314.44;;;2.82;73.93
13593;BME280;6867;50.998;4.250;2023-02-10T00:06:19;103325.53;;;2.89;74.08
13593;BME280;6867;50.998;4.250;2023-02-10T00:08:48;103313.47;;;2.83;73.71
13593;BME280;6867;50.998;4.250;2023-02-10T00:11:15;103318.69;;;2.70;73.93
13593;BME280;6867;50.998;4.250;2023-02-10T00:13:42;103317.34;;;2.63;74.48
13593;BME280;6867;50.998;4.250;2023-02-10T00:16:11;103319.44;;;2.58;74.20
13593;BME280;6867;50.998;4.250;2023-02-10T00:18:39;103321.81;;;2.63;74.73
13593;BME280;6867;50.998;4.250;2023-02-10T00:21:08;103329.69;;;2.64;74.63
13593;BME280;6867;50.998;4.250;2023-02-10T00:23:36;103326.47;;;2.59;74.78
13593;BME280;6867;50.998;4.250;2023-02-10T00:26:03;103328.47;;;2.56;74.96
13593;BME280;6867;50.998;4.250;2023-02-10T00:28:32;103319.91;;;2.50;74.99
13593;BME280;6867;50.998;4.250;2023-02-10T00:31:04;103318.66;;;2.42;74.91
13593;BME280;6867;50.998;4.250;2023-02-10T00:33:30;103311.06;;;2.36;74.71
13593;BME280;6867;50.998;4.250;2023-02-10T00:35:58;103308.78;;;2.30;74.90
13593;BME280;6867;50.998;4.250;2023-02-10T00:38:25;103314.06;;;2.30;75.14
13593;BME280;6867;50.998;4.250;2023-02-10T00:40:52;103322.03;;;2.30;74.98
13593;BME280;6867;50.998;4.250;2023-02-10T00:43:18;103323.00;;;2.29;75.19
13593;BME280;6867;50.998;4.250;2023-02-10T00:45:45;103321.47;;;2.24;75.38
13593;BME280;6867;50.998;4.250;2023-02-10T00:48:12;103320.78;;;2.21;75.52
13593;BME280;6867;50.998;4.250;2023-02-10T00:50:39;103314.22;;;2.12;75.18
13593;BME280;6867;50.998;4.250;2023-02-10T00:53:07;103314.31;;;2.11;75.47
13593;BME280;6867;50.998;4.250;2023-02-10T00:55:33;103310.31;;;2.04;75.50
13593;BME280;6867;50.998;4.250;2023-02-10T00:58:00;103305.97;;;2.03;75.31
13593;BME280;6867;50.998;4.250;2023-02-10T01:00:27;103314.66;;;2.05;75.57
13593;BME280;6867;50.998;4.250;2023-02-10T01:02:53;103322.28;;;2.11;75.97
13593;BME280;6867;50.998;4.250;2023-02-10T01:05:20;103336.28;;;2.13;76.01
13593;BME280;6867;50.998;4.250;2023-02-10T01:07:47;103333.59;;;2.29;75.76
13593;BME280;6867;50.998;4.250;2023-02-10T01:10:15;103323.56;;;2.34;75.55
13593;BME280;6867;50.998;4.250;2023-02-10T01:12:41;103316.84;;;2.28;75.10
13593;BME280;6867;50.998;4.250;2023-02-10T01:15:08;103316.16;;;2.24;75.47
13593;BME280;6867;50.998;4.250;2023-02-10T01:17:35;103323.63;;;2.18;75.25
13593;BME280;6867;50.998;4.250;2023-02-10T01:20:02;103317.84;;;2.11;75.18
13593;BME280;6867;50.998;4.250;2023-02-10T01:22:31;103313.91;;;2.03;75.21
13593;BME280;6867;50.998;4.250;2023-02-10T01:24:58;103316.25;;;1.93;75.33
13593;BME280;6867;50.998;4.250;2023-02-10T01:27:26;103316.97;;;1.81;75.34
13593;BME280;6867;50.998;4.250;2023-02-10T01:29:53;103321.06;;;1.70;75.50
13593;BME280;6867;50.998;4.250;2023-02-10T01:32:19;103317.75;;;1.67;75.45
13593;BME280;6867;50.998;4.250;2023-02-10T01:34:46;103334.41;;;1.69;75.80
13593;BME280;6867;50.998;4.250;2023-02-10T01:37:13;103336.91;;;1.72;75.84
13593;BME280;6867;50.998;4.250;2023-02-10T01:39:39;103341.09;;;1.76;76.05
13593;BME280;6867;50.998;4.250;2023-02-10T01:42:08;103345.44;;;1.77;76.08
13593;BME280;6867;50.998;4.250;2023-02-10T01:47:47;103355.41;;;1.88;76.53
13593;BME280;6867;50.998;4.250;2023-02-10T01:50:14;103365.84;;;1.91;76.44
13593;BME280;6867;50.998;4.250;2023-02-10T01:52:42;103353.44;;;1.91;76.47
13593;BME280;6867;50.998;4.250;2023-02-10T01:55:12;103351.75;;;1.90;76.48
13593;BME280;6867;50.998;4.250;2023-02-10T01:57:42;103351.75;;;1.90;76.43
13593;BME280;6867;50.998;4.250;2023-02-10T02:00:11;103357.81;;;1.92;76.45
13593;BME280;6867;50.998;4.250;2023-02-10T02:02:39;103363.28;;;1.89;76.99
13593;BME280;6867;50.998;4.250;2023-02-10T02:05:20;103359.19;;;1.84;76.86
13593;BME280;6867;50.998;4.250;2023-02-10T02:07:47;103358.69;;;1.77;76.79
13593;BME280;6867;50.998;4.250;2023-02-10T02:10:14;103356.47;;;1.69;76.74
13593;BME280;6867;50.998;4.250;2023-02-10T02:12:48;103354.66;;;1.70;76.79
13593;BME280;6867;50.998;4.250;2023-02-10T02:15:24;103346.88;;;1.67;76.62
13593;BME280;6867;50.998;4.250;2023-02-10T02:17:59;103350.84;;;1.60;76.58
13593;BME280;6867;50.998;4.250;2023-02-10T02:21:02;103346.28;;;1.62;76.69
13593;BME280;6867;50.998;4.250;2023-02-10T02:29:49;103335.84;;;1.59;76.47
13593;BME280;6867;50.998;4.250;2023-02-10T02:32:25;103349.09;;;1.59;76.84
13593;BME280;6867;50.998;4.250;2023-02-10T02:34:57;103349.03;;;1.60;76.85
13593;BME280;6867;50.998;4.250;2023-02-10T02:37:28;103341.94;;;1.61;76.60
13593;BME280;6867;50.998;4.250;2023-02-10T02:39:55;103332.63;;;1.54;76.81
13593;BME280;6867;50.998;4.250;2023-02-10T02:42:24;103335.47;;;1.51;76.77
13593;BME280;6867;50.998;4.250;2023-02-10T02:44:54;103340.56;;;1.54;76.74
13593;BME280;6867;50.998;4.250;2023-02-10T02:47:38;103349.78;;;1.62;76.74
13593;BME280;6867;50.998;4.250;2023-02-10T02:50:19;103344.16;;;1.68;77.10
13593;BME280;6867;50.998;4.250;2023-02-10T02:52:58;103340.31;;;1.74;76.98
13593;BME280;6867;50.998;4.250;2023-02-10T02:55:38;103341.75;;;1.80;77.13
13593;BME280;6867;50.998;4.250;2023-02-10T02:58:16;103341.94;;;1.77;76.90
13593;BME280;6867;50.998;4.250;2023-02-10T03:00:45;103348.34;;;1.72;77.11
13593;BME280;6867;50.998;4.250;2023-02-10T03:03:15;103352.53;;;1.77;77.03
13593;BME280;6867;50.998;4.250;2023-02-10T03:05:42;103360.38;;;1.78;77.28
13593;BME280;6867;50.998;4.250;2023-02-10T03:08:09;103361.81;;;1.84;77.17
13593;BME280;6867;50.998;4.250;2023-02-10T03:10:36;103358.69;;;1.77;77.13
13593;BME280;6867;50.998;4.250;2023-02-10T03:13:03;103364.00;;;1.77;77.29
13593;BME280;6867;50.998;4.250;2023-02-10T03:15:29;103371.69;;;1.82;77.42
13593;BME280;6867;50.998;4.250;2023-02-10T03:17:56;103362.03;;;1.81;77.46
13593;BME280;6867;50.998;4.250;2023-02-10T03:20:25;103367.75;;;1.89;77.65
13593;BME280;6867;50.998;4.250;2023-02-10T03:22:51;103365.69;;;1.94;77.77
13593;BME280;6867;50.998;4.250;2023-02-10T03:25:18;103384.44;;;2.21;78.25
13593;BME280;6867;50.998;4.250;2023-02-10T03:27:45;103370.16;;;2.23;77.56
13593;BME280;6867;50.998;4.250;2023-02-10T03:30:12;103357.78;;;2.08;77.26
13593;BME280;6867;50.998;4.250;2023-02-10T03:32:38;103365.38;;;1.84;77.83
13593;BME280;6867;50.998;4.250;2023-02-10T03:35:05;103364.94;;;1.76;78.10
13593;BME280;6867;50.998;4.250;2023-02-10T03:37:33;103377.06;;;1.80;78.33
13593;BME280;6867;50.998;4.250;2023-02-10T03:40:00;103375.19;;;1.82;78.56
13593;BME280;6867;50.998;4.250;2023-02-10T03:42:27;103369.13;;;1.80;78.43
13593;BME280;6867;50.998;4.250;2023-02-10T03:44:53;103369.28;;;1.77;78.35
13593;BME280;6867;50.998;4.250;2023-02-10T03:47:20;103381.75;;;1.75;78.79
13593;BME280;6867;50.998;4.250;2023-02-10T03:49:47;103396.75;;;1.76;78.60
13593;BME280;6867;50.998;4.250;2023-02-10T03:52:13;103390.13;;;1.83;78.72
13593;BME280;6867;50.998;4.250;2023-02-10T03:54:42;103403.13;;;1.88;79.11
13593;BME280;6867;50.998;4.250;2023-02-10T03:57:10;103397.81;;;1.88;79.10
13593;BME280;6867;50.998;4.250;2023-02-10T03:59:36;103400.72;;;1.83;79.18
13593;BME280;6867;50.998;4.250;2023-02-10T04:02:03;103408.88;;;1.80;78.88
13593;BME280;6867;50.998;4.250;2023-02-10T04:04:30;103411.28;;;1.85;78.96
13593;BME280;6867;50.998;4.250;2023-02-10T04:06:57;103416.22;;;1.91;79.40
13593;BME280;6867;50.998;4.250;2023-02-10T04:09:23;103411.00;;;1.89;79.13
13593;BME280;6867;50.998;4.250;2023-02-10T04:11:51;103416.31;;;1.89;79.47
13593;BME280;6867;50.998;4.250;2023-02-10T04:14:18;103426.75;;;1.92;79.32
13593;BME280;6867;50.998;4.250;2023-02-10T04:16:45;103410.66;;;1.95;79.36
13593;BME280;6867;50.998;4.250;2023-02-10T04:19:11;103416.81;;;1.96;79.48
13593;BME280;6867;50.998;4.250;2023-02-10T04:21:38;103415.78;;;1.98;79.61
13593;BME280;6867;50.998;4.250;2023-02-10T04:24:05;103411.06;;;2.04;79.27
13593;BME280;6867;50.998;4.250;2023-02-10T04:26:32;103402.78;;;2.10;79.39
13593;BME280;6867;50.998;4.250;2023-02-10T04:29:00;103403.53;;;2.12;79.04
13593;BME280;6867;50.998;4.250;2023-02-10T04:31:26;103404.75;;;2.06;79.20
13593;BME280;6867;50.998;4.250;2023-02-10T04:33:53;103402.53;;;1.98;78.95
13593;BME280;6867;50.998;4.250;2023-02-10T04:36:20;103399.19;;;1.95;79.01
13593;BME280;6867;50.998;4.250;2023-02-10T04:38:46;103406.41;;;1.93;79.45
13593;BME280;6867;50.998;4.250;2023-02-10T04:41:13;103402.09;;;1.90;79.45
13593;BME280;6867;50.998;4.250;2023-02-10T04:43:40;103406.19;;;1.96;79.57
13593;BME280;6867;50.998;4.250;2023-02-10T04:46:08;103415.09;;;1.95;79.60
13593;BME280;6867;50.998;4.250;2023-02-10T04:48:35;103412.72;;;1.90;79.50
13593;BME280;6867;50.998;4.250;2023-02-10T04:51:05;103410.16;;;1.89;79.49
13593;BME280;6867;50.998;4.250;2023-02-10T04:53:32;103407.94;;;1.81;79.25
13593;BME280;6867;50.998;4.250;2023-02-10T04:55:59;103407.50;;;1.73;79.48
13593;BME280;6867;50.998;4.250;2023-02-10T04:58:25;103401.63;;;1.68;79.36
13593;BME280;6867;50.998;4.250;2023-02-10T05:00:54;103401.63;;;1.68;79.26
13593;BME280;6867;50.998;4.250;2023-02-10T05:03:22;103401.78;;;1.65;79.35
13593;BME280;6867;50.998;4.250;2023-02-10T05:05:49;103411.69;;;1.61;79.35
13593;BME280;6867;50.998;4.250;2023-02-10T05:08:17;103403.84;;;1.60;79.21
13593;BME280;6867;50.998;4.250;2023-02-10T05:10:46;103400.13;;;1.62;79.55
13593;BME280;6867;50.998;4.250;2023-02-10T05:13:13;103397.16;;;1.68;79.30
13593;BME280;6867;50.998;4.250;2023-02-10T05:15:40;103401.41;;;1.71;79.41
13593;BME280;6867;50.998;4.250;2023-02-10T05:18:06;103397.50;;;1.78;79.38
13593;BME280;6867;50.998;4.250;2023-02-10T05:20:35;103396.53;;;1.79;79.28
13593;BME280;6867;50.998;4.250;2023-02-10T05:23:01;103402.63;;;1.81;79.29
13593;BME280;6867;50.998;4.250;2023-02-10T05:25:28;103397.34;;;1.81;79.63
13593;BME280;6867;50.998;4.250;2023-02-10T05:27:55;103401.69;;;1.82;79.89
13593;BME280;6867;50.998;4.250;2023-02-10T05:30:21;103403.38;;;1.83;79.87
13593;BME280;6867;50.998;4.250;2023-02-10T05:32:48;103395.44;;;1.83;79.60
13593;BME280;6867;50.998;4.250;2023-02-10T05:35:15;103403.38;;;1.83;79.95
13593;BME280;6867;50.998;4.250;2023-02-10T05:37:43;103406.88;;;1.84;79.99
13593;BME280;6867;50.998;4.250;2023-02-10T05:40:10;103410.22;;;1.87;79.75
13593;BME280;6867;50.998;4.250;2023-02-10T05:42:37;103407.50;;;1.89;79.81
13593;BME280;6867;50.998;4.250;2023-02-10T05:45:04;103411.59;;;1.94;80.01
13593;BME280;6867;50.998;4.250;2023-02-10T05:47:30;103403.66;;;1.94;79.75
13593;BME280;6867;50.998;4.250;2023-02-10T05:49:57;103411.44;;;1.97;79.99
13593;BME280;6867;50.998;4.250;2023-02-10T05:52:24;103403.03;;;2.05;80.17
13593;BME280;6867;50.998;4.250;2023-02-10T05:54:52;103405.00;;;2.02;80.12
13593;BME280;6867;50.998;4.250;2023-02-10T05:57:18;103393.63;;;1.99;79.93
13593;BME280;6867;50.998;4.250;2023-02-10T05:59:45;103400.63;;;2.00;80.11
13593;BME280;6867;50.998;4.250;2023-02-10T06:02:12;103402.44;;;2.00;80.24
13593;BME280;6867;50.998;4.250;2023-02-10T06:04:38;103406.88;;;1.99;80.30
13593;BME280;6867;50.998;4.250;2023-02-10T06:07:05;103404.16;;;2.01;80.02
13593;BME280;6867;50.998;4.250;2023-02-10T06:09:31;103406.13;;;1.97;80.09
13593;BME280;6867;50.998;4.250;2023-02-10T06:11:59;103403.75;;;1.93;79.94
13593;BME280;6867;50.998;4.250;2023-02-10T06:14:27;103406.47;;;1.91;80.04
13593;BME280;6867;50.998;4.250;2023-02-10T06:16:54;103406.56;;;1.90;79.95
13593;BME280;6867;50.998;4.250;2023-02-10T06:19:21;103410.16;;;1.89;79.71
13593;BME280;6867;50.998;4.250;2023-02-10T06:21:48;103408.63;;;1.85;79.95
13593;BME280;6867;50.998;4.250;2023-02-10T06:24:15;103406.97;;;1.82;79.93
13593;BME280;6867;50.998;4.250;2023-02-10T06:26:41;103400.03;;;1.80;80.08
13593;BME280;6867;50.998;4.250;2023-02-10T06:29:09;103400.47;;;1.88;80.16
13593;BME280;6867;50.998;4.250;2023-02-10T06:31:36;103398.28;;;1.80;80.09
13593;BME280;6867;50.998;4.250;2023-02-10T06:34:03;103393.31;;;1.74;79.89
13593;BME280;6867;50.998;4.250;2023-02-10T06:36:30;103404.25;;;1.68;79.93
13593;BME280;6867;50.998;4.250;2023-02-10T06:38:57;103405.44;;;1.62;79.88
13593;BME280;6867;50.998;4.250;2023-02-10T06:41:24;103399.38;;;1.60;79.86
13593;BME280;6867;50.998;4.250;2023-02-10T06:43:50;103401.94;;;1.62;79.95
13593;BME280;6867;50.998;4.250;2023-02-10T06:46:18;103403.63;;;1.63;79.52
13593;BME280;6867;50.998;4.250;2023-02-10T06:48:45;103394.09;;;1.60;79.87
13593;BME280;6867;50.998;4.250;2023-02-10T06:51:12;103398.69;;;1.57;79.90
13593;BME280;6867;50.998;4.250;2023-02-10T06:53:38;103409.97;;;1.60;80.02
13593;BME280;6867;50.998;4.250;2023-02-10T06:56:06;103400.66;;;1.53;79.91
13593;BME280;6867;50.998;4.250;2023-02-10T06:58:32;103404.41;;;1.49;79.78
13593;BME280;6867;50.998;4.250;2023-02-10T07:00:59;103401.25;;;1.42;79.77
13593;BME280;6867;50.998;4.250;2023-02-10T07:03:27;103406.03;;;1.52;80.20
13593;BME280;6867;50.998;4.250;2023-02-10T07:05:54;103408.50;;;1.55;80.30
13593;BME280;6867;50.998;4.250;2023-02-10T07:08:21;103411.94;;;1.57;80.42
13593;BME280;6867;50.998;4.250;2023-02-10T07:10:47;103415.19;;;1.62;80.63
13593;BME280;6867;50.998;4.250;2023-02-10T07:13:14;103424.59;;;1.67;80.66
13593;BME280;6867;50.998;4.250;2023-02-10T07:15:41;103419.38;;;1.66;80.21
13593;BME280;6867;50.998;4.250;2023-02-10T07:18:07;103417.31;;;1.71;80.43
13593;BME280;6867;50.998;4.250;2023-02-10T07:20:36;103423.91;;;1.80;80.29
13593;BME280;6867;50.998;4.250;2023-02-10T07:23:02;103421.94;;;1.83;80.17
13593;BME280;6867;50.998;4.250;2023-02-10T07:25:29;103422.72;;;1.85;79.99
13593;BME280;6867;50.998;4.250;2023-02-10T07:27:56;103425.13;;;1.90;80.32
13593;BME280;6867;50.998;4.250;2023-02-10T07:30:22;103420.25;;;1.98;80.14
13593;BME280;6867;50.998;4.250;2023-02-10T07:32:49;103424.16;;;2.07;80.20
13593;BME280;6867;50.998;4.250;2023-02-10T07:35:16;103426.66;;;2.10;80.37
13593;BME280;6867;50.998;4.250;2023-02-10T07:37:44;103427.91;;;2.18;80.23
13593;BME280;6867;50.998;4.250;2023-02-10T07:40:11;103440.97;;;2.21;80.42
13593;BME280;6867;50.998;4.250;2023-02-10T07:42:37;103443.88;;;2.33;80.39
13593;BME280;6867;50.998;4.250;2023-02-10T07:45:05;103447.38;;;2.33;80.77
13593;BME280;6867;50.998;4.250;2023-02-10T07:47:32;103449.00;;;2.36;80.38
13593;BME280;6867;50.998;4.250;2023-02-10T07:49:58;103457.81;;;2.36;80.47
13593;BME280;6867;50.998;4.250;2023-02-10T07:52:25;103453.88;;;2.43;81.07
13593;BME280;6867;50.998;4.250;2023-02-10T07:54:53;103467.91;;;2.45;80.89
13593;BME280;6867;50.998;4.250;2023-02-10T07:57:21;103477.22;;;2.53;81.45
13593;BME280;6867;50.998;4.250;2023-02-10T07:59:47;103464.38;;;2.61;81.24
13593;BME280;6867;50.998;4.250;2023-02-10T08:02:14;103468.56;;;2.65;81.01
13593;BME280;6867;50.998;4.250;2023-02-10T08:04:41;103479.63;;;2.71;81.60
13593;BME280;6867;50.998;4.250;2023-02-10T08:07:07;103495.63;;;2.86;81.35
13593;BME280;6867;50.998;4.250;2023-02-10T08:09:36;103491.41;;;2.97;81.57
13593;BME280;6867;50.998;4.250;2023-02-10T08:12:04;103504.34;;;3.18;82.17
13593;BME280;6867;50.998;4.250;2023-02-10T08:14:31;103501.13;;;3.41;82.86
13593;BME280;6867;50.998;4.250;2023-02-10T08:16:58;103510.44;;;3.63;83.09
13593;BME280;6867;50.998;4.250;2023-02-10T08:19:25;103507.47;;;3.96;83.18
13593;BME280;6867;50.998;4.250;2023-02-10T08:21:51;103513.75;;;4.22;83.40
13593;BME280;6867;50.998;4.250;2023-02-10T08:24:18;103518.56;;;4.44;82.90
13593;BME280;6867;50.998;4.250;2023-02-10T08:26:45;103517.47;;;4.61;82.86
13593;BME280;6867;50.998;4.250;2023-02-10T08:29:13;103516.75;;;4.84;83.01
13593;BME280;6867;50.998;4.250;2023-02-10T08:31:40;103517.09;;;4.92;82.38
13593;BME280;6867;50.998;4.250;2023-02-10T08:34:13;103511.91;;;5.04;82.56
13593;BME280;6867;50.998;4.250;2023-02-10T08:36:40;103505.41;;;5.08;82.61
13593;BME280;6867;50.998;4.250;2023-02-10T08:39:10;103505.63;;;5.17;82.58
13593;BME280;6867;50.998;4.250;2023-02-10T08:41:37;103505.94;;;5.25;82.83
13593;BME280;6867;50.998;4.250;2023-02-10T08:44:04;103506.81;;;5.39;82.44
13593;BME280;6867;50.998;4.250;2023-02-10T08:46:33;103493.91;;;5.33;82.59
13593;BME280;6867;50.998;4.250;2023-02-10T08:49:00;103497.31;;;5.60;82.29
13593;BME280;6867;50.998;4.250;2023-02-10T08:51:27;103491.91;;;5.36;82.58
13593;BME280;6867;50.998;4.250;2023-02-10T08:53:55;103507.03;;;5.48;82.81
13593;BME280;6867;50.998;4.250;2023-02-10T08:56:22;103521.72;;;5.80;83.11
13593;BME280;6867;50.998;4.250;2023-02-10T08:58:49;103510.97;;;5.94;82.63
13593;BME280;6867;50.998;4.250;2023-02-10T09:01:18;103525.41;;;6.39;82.76
13593;BME280;6867;50.998;4.250;2023-02-10T09:03:47;103524.47;;;6.40;82.25
13593;BME280;6867;50.998;4.250;2023-02-10T09:06:15;103527.16;;;6.40;81.58
13593;BME280;6867;50.998;4.250;2023-02-10T09:08:43;103524.00;;;6.46;81.62
13593;BME280;6867;50.998;4.250;2023-02-10T09:11:10;103509.09;;;6.07;81.80
13593;BME280;6867;50.998;4.250;2023-02-10T09:13:37;103519.63;;;6.21;82.01
13593;BME280;6867;50.998;4.250;2023-02-10T09:16:04;103515.50;;;6.05;81.36
13593;BME280;6867;50.998;4.250;2023-02-10T09:18:31;103528.03;;;6.28;82.07
13593;BME280;6867;50.998;4.250;2023-02-10T09:21:00;103534.47;;;6.49;81.92
13593;BME280;6867;50.998;4.250;2023-02-10T09:23:27;103528.22;;;6.62;81.72
13593;BME280;6867;50.998;4.250;2023-02-10T09:25:55;103511.34;;;6.37;81.53
13593;BME280;6867;50.998;4.250;2023-02-10T09:28:22;103524.06;;;6.58;81.97
13593;BME280;6867;50.998;4.250;2023-02-10T09:30:49;103535.66;;;6.69;81.90
13593;BME280;6867;50.998;4.250;2023-02-10T09:33:16;103525.97;;;6.80;81.68
13593;BME280;6867;50.998;4.250;2023-02-10T09:35:43;103519.00;;;6.90;81.12
13593;BME280;6867;50.998;4.250;2023-02-10T09:38:12;103533.03;;;7.16;81.47
13593;BME280;6867;50.998;4.250;2023-02-10T09:40:48;103531.47;;;7.24;80.93
13593;BME280;6867;50.998;4.250;2023-02-10T09:43:26;103526.75;;;6.93;80.41
13593;BME280;6867;50.998;4.250;2023-02-10T09:46:01;103527.94;;;6.54;81.54
13593;BME280;6867;50.998;4.250;2023-02-10T09:48:39;103535.88;;;6.66;81.89
13593;BME280;6867;50.998;4.250;2023-02-10T09:51:15;103540.38;;;6.90;81.46
13593;BME280;6867;50.998;4.250;2023-02-10T09:53:49;103545.44;;;6.82;82.59
13593;BME280;6867;50.998;4.250;2023-02-10T09:56:19;103544.03;;;7.00;82.56
13593;BME280;6867;50.998;4.250;2023-02-10T09:58:49;103532.16;;;7.04;82.14
13593;BME280;6867;50.998;4.250;2023-02-10T10:01:21;103547.78;;;7.33;81.73
13593;BME280;6867;50.998;4.250;2023-02-10T10:03:54;103537.34;;;7.41;81.92
13593;BME280;6867;50.998;4.250;2023-02-10T10:06:26;103535.25;;;7.56;81.77
13593;BME280;6867;50.998;4.250;2023-02-10T10:09:00;103531.75;;;7.89;81.22
13593;BME280;6867;50.998;4.250;2023-02-10T10:11:34;103524.47;;;7.80;80.81
13593;BME280;6867;50.998;4.250;2023-02-10T10:14:02;103540.75;;;7.88;80.73
13593;BME280;6867;50.998;4.250;2023-02-10T10:16:42;103535.03;;;8.04;80.64
13593;BME280;6867;50.998;4.250;2023-02-10T10:19:19;103539.28;;;8.06;80.10
13593;BME280;6867;50.998;4.250;2023-02-10T10:22:00;103542.94;;;8.16;80.98
13593;BME280;6867;50.998;4.250;2023-02-10T10:24:42;103545.00;;;8.13;81.18
13593;BME280;6867;50.998;4.250;2023-02-10T10:27:20;103545.28;;;7.98;80.64
13593;BME280;6867;50.998;4.250;2023-02-10T10:29:52;103535.28;;;8.12;80.26
13593;BME280;6867;50.998;4.250;2023-02-10T10:32:28;103540.59;;;8.23;80.19
13593;BME280;6867;50.998;4.250;2023-02-10T10:35:00;103535.09;;;8.47;79.34
13593;BME280;6867;50.998;4.250;2023-02-10T10:37:27;103537.06;;;8.45;78.57
13593;BME280;6867;50.998;4.250;2023-02-10T10:39:59;103524.03;;;8.40;78.52
13593;BME280;6867;50.998;4.250;2023-02-10T10:42:31;103546.41;;;8.51;79.11
13593;BME280;6867;50.998;4.250;2023-02-10T10:45:05;103543.03;;;8.15;79.00
13593;BME280;6867;50.998;4.250;2023-02-10T10:47:38;103554.22;;;8.42;78.81
13593;BME280;6867;50.998;4.250;2023-02-10T10:50:12;103539.50;;;8.69;77.74
13593;BME280;6867;50.998;4.250;2023-02-10T10:52:41;103527.69;;;8.39;77.08
13593;BME280;6867;50.998;4.250;2023-02-10T10:55:14;103540.97;;;8.73;77.50
13593;BME280;6867;50.998;4.250;2023-02-10T10:57:42;103542.03;;;8.50;77.42
13593;BME280;6867;50.998;4.250;2023-02-10T11:00:17;103556.16;;;8.29;78.36
13593;BME280;6867;50.998;4.250;2023-02-10T11:02:56;103560.22;;;8.23;78.43
13593;BME280;6867;50.998;4.250;2023-02-10T11:05:28;103544.16;;;8.23;77.69
13593;BME280;6867;50.998;4.250;2023-02-10T11:07:56;103539.75;;;8.22;78.19
13593;BME280;6867;50.998;4.250;2023-02-10T11:10:28;103538.41;;;8.28;78.16
13593;BME280;6867;50.998;4.250;2023-02-10T11:12:57;103542.13;;;8.48;78.25
13593;BME280;6867;50.998;4.250;2023-02-10T11:15:33;103533.38;;;8.57;77.51
13593;BME280;6867;50.998;4.250;2023-02-10T11:18:02;103522.19;;;8.73;76.94
13593;BME280;6867;50.998;4.250;2023-02-10T11:20:30;103519.88;;;8.80;77.59
13593;BME280;6867;50.998;4.250;2023-02-10T11:22:59;103500.22;;;8.90;76.97
13593;BME280;6867;50.998;4.250;2023-02-10T11:25:30;103494.47;;;8.95;76.34
13593;BME280;6867;50.998;4.250;2023-02-10T11:27:58;103492.34;;;8.98;76.58
13593;BME280;6867;50.998;4.250;2023-02-10T11:30:26;103483.53;;;9.08;75.61
13593;BME280;6867;50.998;4.250;2023-02-10T11:32:54;103469.94;;;9.00;75.40
13593;BME280;6867;50.998;4.250;2023-02-10T11:35:22;103481.94;;;9.26;75.54
13593;BME280;6867;50.998;4.250;2023-02-10T11:37:52;103493.28;;;9.39;76.42
13593;BME280;6867;50.998;4.250;2023-02-10T11:40:22;103461.50;;;9.35;75.29
13593;BME280;6867;50.998;4.250;2023-02-10T11:42:52;103458.91;;;9.54;74.58
13593;BME280;6867;50.998;4.250;2023-02-10T11:45:21;103462.78;;;9.71;74.82
13593;BME280;6867;50.998;4.250;2023-02-10T11:48:00;103438.44;;;9.53;74.08
13593;BME280;6867;50.998;4.250;2023-02-10T11:50:30;103443.53;;;9.56;73.54
13593;BME280;6867;50.998;4.250;2023-02-10T11:52:57;103447.97;;;9.77;74.06
13593;BME280;6867;50.998;4.250;2023-02-10T11:55:30;103452.09;;;9.90;74.20
13593;BME280;6867;50.998;4.250;2023-02-10T11:58:14;103438.25;;;9.85;72.77
13593;BME280;6867;50.998;4.250;2023-02-10T12:01:07;103437.03;;;10.09;72.33
13593;BME280;6867;50.998;4.250;2023-02-10T12:06:33;103438.16;;;10.16;72.01
13593;BME280;6867;50.998;4.250;2023-02-10T12:09:07;103420.22;;;10.36;71.12
13593;BME280;6867;50.998;4.250;2023-02-10T12:11:45;103415.44;;;10.39;71.61
13593;BME280;6867;50.998;4.250;2023-02-10T12:14:28;103419.09;;;10.67;70.80
13593;BME280;6867;50.998;4.250;2023-02-10T12:17:02;103410.63;;;10.43;71.11
13593;BME280;6867;50.998;4.250;2023-02-10T12:19:39;103419.38;;;10.35;71.50
13593;BME280;6867;50.998;4.250;2023-02-10T12:22:13;103400.97;;;10.60;70.62
13593;BME280;6867;50.998;4.250;2023-02-10T12:27:47;103405.19;;;10.91;70.13
13593;BME280;6867;50.998;4.250;2023-02-10T12:30:25;103381.88;;;10.63;70.02
13593;BME280;6867;50.998;4.250;2023-02-10T12:33:00;103389.88;;;10.82;69.29
13593;BME280;6867;50.998;4.250;2023-02-10T12:35:36;103378.66;;;10.40;69.20
13593;BME280;6867;50.998;4.250;2023-02-10T12:38:24;103382.00;;;10.71;69.08
13593;BME280;6867;50.998;4.250;2023-02-10T12:41:04;103359.34;;;10.73;68.35
13593;BME280;6867;50.998;4.250;2023-02-10T12:43:55;103358.44;;;10.26;68.80
13593;BME280;6867;50.998;4.250;2023-02-10T12:46:31;103397.44;;;10.01;69.58
13593;BME280;6867;50.998;4.250;2023-02-10T12:49:10;103406.31;;;10.11;70.26
13593;BME280;6867;50.998;4.250;2023-02-10T12:52:01;103410.28;;;9.78;70.86
13593;BME280;6867;50.998;4.250;2023-02-10T12:54:34;103399.16;;;10.12;70.85
13593;BME280;6867;50.998;4.250;2023-02-10T12:57:06;103414.50;;;9.90;71.18
13593;BME280;6867;50.998;4.250;2023-02-10T12:59:41;103409.59;;;9.95;71.10
13593;BME280;6867;50.998;4.250;2023-02-10T13:02:15;103436.53;;;9.84;71.60
13593;BME280;6867;50.998;4.250;2023-02-10T13:04:47;103426.69;;;10.04;71.53
13593;BME280;6867;50.998;4.250;2023-02-10T13:07:23;103428.59;;;9.73;72.00
13593;BME280;6867;50.998;4.250;2023-02-10T13:09:55;103419.41;;;9.66;71.71
13593;BME280;6867;50.998;4.250;2023-02-10T13:12:26;103420.44;;;9.94;71.98
13593;BME280;6867;50.998;4.250;2023-02-10T13:14:58;103425.28;;;10.00;72.31
13593;BME280;6867;50.998;4.250;2023-02-10T13:17:36;103404.34;;;9.84;71.60
13593;BME280;6867;50.998;4.250;2023-02-10T13:20:11;103422.16;;;10.14;72.48
13593;BME280;6867;50.998;4.250;2023-02-10T13:22:49;103400.59;;;10.45;70.92
13593;BME280;6867;50.998;4.250;2023-02-10T13:25:25;103378.06;;;10.56;70.75
13593;BME280;6867;50.998;4.250;2023-02-10T13:28:01;103365.34;;;10.19;70.16
13593;BME280;6867;50.998;4.250;2023-02-10T13:30:49;103385.56;;;10.52;70.51
13593;BME280;6867;50.998;4.250;2023-02-10T13:33:23;103373.84;;;10.43;70.74
13593;BME280;6867;50.998;4.250;2023-02-10T13:35:54;103368.44;;;10.24;70.53
13593;BME280;6867;50.998;4.250;2023-02-10T13:38:22;103363.78;;;10.07;70.21